KSSF/SSF METAR and TAF weather

Enter ICAO airport designator
Station Type Date Time Source
KSSF METAR 2022/01/26 14:06 UTC NOAA

KSSF 261406Z 05010KT 10SM OVC031 11/06 A3028 RMK AO2 T01060061


Station Type Date Time Source
KSSF Decoded METAR 2022/01/26 14:06 UTC NOAA

SAN ANTONIO STINSON MUNI, TX, United States (KSSF) 29-20N 098-28W 176M
Jan 26, 2022 - 09:06 AM EST / 2022.01.26 1406 UTC
Wind: from the NE (050 degrees) at 12 MPH (10 KT):0
Visibility: 10 mile(s):0
Sky conditions: overcast
Temperature: 51.1 F (10.6 C)
Dew Point: 43.0 F (6.1 C)
Relative Humidity: 73%
Pressure (altimeter): 30.28 in. Hg (1025 hPa)
ob: KSSF 261406Z 05010KT 10SM OVC031 11/06 A3028 RMK AO2 T01060061
cycle: 14

Station Type Date Time Source
KSSF TAF 2022/01/26 13:58 UTC NOAA

TAF
AMD KSSF 261256Z 2613/2712 07013KT P6SM BKN015 OVC025
FM261400 06010KT P6SM SCT015 BKN035
FM261800 08008KT P6SM BKN040
FM262100 10006KT P6SM SCT050 BKN100
FM270300 06004KT P6SM OVC050

Example: see airport list